Time;durP1;ratioP1;P1;durP2;ratioP2;P2;SDS_P1;SDS_P2;PMS_P1;PMS_P2;Temp;Humidity;BMP_temperature;BMP_pressure;BME280_temperature;BME280_humidity;BME280_pressure;Samples;Min_cycle;Max_cycle;Signal;HPM_P1;HPM_P2
2022/07/29 00:01:48;;;;;;;9.07;3.40;;;9.60;99.90;;;;;;5014163;28;20030;-69
2022/07/29 00:04:13;;;;;;;5.10;3.22;;;9.70;99.90;;;;;;5014332;28;20025;-68
2022/07/29 00:06:40;;;;;;;14.13;3.53;;;9.70;99.90;;;;;;5014347;28;20486;-68
2022/07/29 00:09:05;;;;;;;5.65;3.60;;;9.70;99.90;;;;;;5014101;28;20112;-68
2022/07/29 00:11:31;;;;;;;4.05;3.22;;;9.80;99.90;;;;;;5014253;28;20065;-69
2022/07/29 00:13:57;;;;;;;9.23;3.25;;;9.80;99.90;;;;;;5014009;28;20030;-68
2022/07/29 00:16:22;;;;;;;6.45;2.88;;;9.70;99.90;;;;;;5014205;28;20458;-68
2022/07/29 00:18:48;;;;;;;5.85;3.67;;;9.80;99.90;;;;;;5013956;28;20014;-68
2022/07/29 00:21:14;;;;;;;5.03;3.15;;;9.70;99.90;;;;;;5013218;28;20042;-69
2022/07/29 00:23:39;;;;;;;5.93;3.28;;;9.70;99.90;;;;;;5013874;28;20123;-68
2022/07/29 00:26:05;;;;;;;7.20;3.95;;;9.70;99.90;;;;;;5013835;28;20025;-68
2022/07/29 00:28:30;;;;;;;4.63;2.70;;;9.70;99.90;;;;;;5013712;28;20556;-69
2022/07/29 00:30:56;;;;;;;5.82;3.05;;;9.60;99.90;;;;;;5013896;28;20024;-68
2022/07/29 00:33:23;;;;;;;6.50;3.38;;;9.60;99.90;;;;;;5013906;28;20030;-68
2022/07/29 00:35:49;;;;;;;5.03;2.55;;;9.60;99.90;;;;;;5013709;28;20504;-69
2022/07/29 00:38:17;;;;;;;3.38;2.90;;;9.60;99.90;;;;;;5013239;28;20394;-69
2022/07/29 00:40:44;;;;;;;6.95;3.47;;;9.50;99.90;;;;;;5013359;28;20439;-69
2022/07/29 00:43:10;;;;;;;5.57;3.63;;;9.50;99.90;;;;;;5013645;28;20393;-69
2022/07/29 00:45:35;;;;;;;6.95;3.50;;;9.50;99.90;;;;;;5013566;28;20022;-69
2022/07/29 00:48:03;;;;;;;3.83;3.25;;;9.50;99.90;;;;;;5013524;28;20085;-69
2022/07/29 00:50:28;;;;;;;11.98;3.58;;;9.40;99.90;;;;;;5013591;28;20033;-69
2022/07/29 00:52:54;;;;;;;4.35;3.13;;;9.40;99.90;;;;;;5013462;28;20029;-69
2022/07/29 00:55:20;;;;;;;5.32;3.45;;;9.40;99.90;;;;;;5013743;28;20022;-69
2022/07/29 00:57:46;;;;;;;7.35;3.28;;;9.40;99.90;;;;;;5013443;28;20033;-69
2022/07/29 01:00:18;;;;;;;5.18;3.67;;;9.40;99.90;;;;;;5013385;28;20026;-69
2022/07/29 01:02:47;;;;;;;6.40;4.03;;;9.40;99.90;;;;;;5013400;28;20049;-69
2022/07/29 01:05:12;;;;;;;5.40;3.42;;;9.50;99.90;;;;;;5013925;28;20462;-68
2022/07/29 01:07:39;;;;;;;5.28;3.35;;;9.50;99.90;;;;;;5013249;28;20056;-69
2022/07/29 01:10:07;;;;;;;5.00;3.50;;;9.50;99.90;;;;;;5012081;28;20141;-69
2022/07/29 01:12:35;;;;;;;5.00;3.42;;;9.40;99.90;;;;;;5013550;28;20029;-69
2022/07/29 01:15:02;;;;;;;6.60;3.88;;;9.50;99.90;;;;;;5013354;28;20053;-69
2022/07/29 01:17:43;;;;;;;5.30;3.80;;;9.40;99.90;;;;;;5011740;28;20523;-69
2022/07/29 01:20:35;;;;;;;3.92;3.50;;;9.40;99.90;;;;;;5060185;23;20501;-68
2022/07/29 01:23:06;;;;;;;3.70;3.13;;;9.40;99.90;;;;;;5002043;28;20029;-68
2022/07/29 01:25:48;;;;;;;5.72;3.72;;;9.40;99.90;;;;;;5033142;28;20072;-68
2022/07/29 01:28:35;;;;;;;5.20;3.70;;;9.30;99.90;;;;;;5033366;28;20114;-68
2022/07/29 01:31:04;;;;;;;5.45;3.78;;;9.30;99.90;;;;;;5033234;28;20022;-68
2022/07/29 01:33:50;;;;;;;5.95;3.60;;;9.20;99.90;;;;;;5036804;28;20060;-68
2022/07/29 01:36:42;;;;;;;6.80;3.65;;;9.20;99.90;;;;;;5037106;28;20120;-68
2022/07/29 01:39:17;;;;;;;9.73;3.88;;;9.10;99.90;;;;;;5037557;28;20018;-68
2022/07/29 01:41:58;;;;;;;3.78;3.38;;;9.00;99.90;;;;;;5038210;28;20036;-68
2022/07/29 01:44:32;;;;;;;5.82;3.30;;;9.00;99.90;;;;;;5037166;28;20057;-68
2022/07/29 01:47:01;;;;;;;3.92;2.97;;;8.90;99.90;;;;;;5037225;28;20036;-68
2022/07/29 01:49:29;;;;;;;5.47;3.45;;;8.90;99.90;;;;;;5036454;28;20517;-68
2022/07/29 01:52:01;;;;;;;5.38;3.33;;;8.80;99.90;;;;;;5036324;28;20037;-68
2022/07/29 01:54:43;;;;;;;7.50;3.47;;;8.80;99.90;;;;;;5036799;28;20018;-68
2022/07/29 01:57:12;;;;;;;5.15;3.30;;;8.70;99.90;;;;;;5036466;28;20100;-68
2022/07/29 01:59:39;;;;;;;5.50;3.88;;;8.70;99.90;;;;;;5036490;28;20028;-68
2022/07/29 02:02:08;;;;;;;5.75;3.20;;;8.60;99.90;;;;;;5036825;28;20351;-68
2022/07/29 02:04:36;;;;;;;3.70;3.25;;;8.60;99.90;;;;;;5034964;28;20068;-68
2022/07/29 02:07:05;;;;;;;7.10;3.55;;;8.60;99.90;;;;;;5035059;28;20087;-68
2022/07/29 02:09:35;;;;;;;7.72;3.25;;;8.50;99.90;;;;;;5035866;28;20493;-68
2022/07/29 02:12:03;;;;;;;6.22;4.00;;;8.50;99.90;;;;;;5036036;28;20029;-68
2022/07/29 02:14:33;;;;;;;7.53;4.10;;;8.40;99.90;;;;;;5036316;28;20104;-68
2022/07/29 02:17:01;;;;;;;6.80;3.60;;;8.40;99.90;;;;;;5036115;28;20079;-68
2022/07/29 02:19:29;;;;;;;4.65;3.83;;;8.40;99.90;;;;;;5035777;28;20018;-68
2022/07/29 02:21:57;;;;;;;6.30;3.53;;;8.40;99.90;;;;;;5036202;28;20130;-68
2022/07/29 02:24:24;;;;;;;8.27;4.68;;;8.40;99.90;;;;;;5036227;28;20036;-68
2022/07/29 02:26:52;;;;;;;6.38;3.92;;;8.40;99.90;;;;;;5035697;28;20571;-68
2022/07/29 02:29:21;;;;;;;4.55;3.70;;;8.30;99.90;;;;;;5035698;28;20025;-68
2022/07/29 02:31:49;;;;;;;7.07;4.25;;;8.30;99.90;;;;;;5035789;28;20404;-68
2022/07/29 02:34:16;;;;;;;7.32;4.00;;;8.30;99.90;;;;;;5035735;28;20025;-68
2022/07/29 02:36:44;;;;;;;6.90;4.20;;;8.20;99.90;;;;;;5035682;28;20017;-68
2022/07/29 02:39:12;;;;;;;5.70;4.00;;;8.20;99.90;;;;;;5035620;28;20026;-68
2022/07/29 02:41:46;;;;;;;7.20;3.70;;;8.20;99.90;;;;;;5035537;28;20473;-68
2022/07/29 02:44:20;;;;;;;5.18;3.80;;;8.10;99.90;;;;;;5034775;28;20040;-68
2022/07/29 02:46:49;;;;;;;;;;;8.10;99.90;;;;;;5035867;28;20393;-68
2022/07/29 02:49:14;;;;;;;5.45;4.03;;;8.10;99.90;;;;;;5035547;28;20027;-68
2022/07/29 02:51:44;;;;;;;5.65;3.83;;;8.10;99.90;;;;;;5035531;28;20499;-68
2022/07/29 02:54:19;;;;;;;4.20;3.47;;;8.00;99.90;;;;;;5035844;28;20484;-68
2022/07/29 02:56:46;;;;;;;8.70;3.78;;;8.00;99.90;;;;;;5035616;28;20028;-68
2022/07/29 02:59:14;;;;;;;5.97;3.90;;;7.90;99.90;;;;;;5035519;28;20097;-68
2022/07/29 03:01:43;;;;;;;4.65;3.78;;;7.90;99.90;;;;;;5035030;28;20470;-68
2022/07/29 03:04:11;;;;;;;4.10;3.58;;;7.90;99.90;;;;;;5035176;28;20057;-68
2022/07/29 03:06:38;;;;;;;10.10;4.15;;;7.90;99.90;;;;;;5035704;28;20030;-68
2022/07/29 03:09:04;;;;;;;6.43;4.15;;;7.90;99.90;;;;;;5034991;28;20497;-68
2022/07/29 03:11:30;;;;;;;4.00;3.53;;;7.80;99.90;;;;;;5034953;28;20095;-68
2022/07/29 03:13:56;;;;;;;5.18;4.00;;;7.80;99.90;;;;;;5034949;28;20381;-68
2022/07/29 03:16:23;;;;;;;4.78;3.72;;;7.80;99.90;;;;;;5034951;28;20108;-68
2022/07/29 03:18:50;;;;;;;5.80;4.38;;;7.80;99.90;;;;;;5034963;28;20028;-68
2022/07/29 03:21:16;;;;;;;4.18;3.72;;;7.80;99.90;;;;;;5034629;28;20038;-68
2022/07/29 03:23:45;;;;;;;7.82;4.57;;;7.90;99.90;;;;;;5035001;28;20376;-68
2022/07/29 03:26:11;;;;;;;4.97;4.45;;;7.90;99.90;;;;;;5034705;28;20109;-68
2022/07/29 03:28:37;;;;;;;5.72;4.20;;;7.80;99.90;;;;;;5034789;28;20068;-68
2022/07/29 03:31:02;;;;;;;6.70;4.95;;;7.90;99.90;;;;;;5034650;28;20017;-68
2022/07/29 03:33:30;;;;;;;9.55;5.03;;;7.90;99.90;;;;;;5034653;28;20481;-68
2022/07/29 03:35:56;;;;;;;7.45;5.35;;;8.00;99.90;;;;;;5034429;28;20017;-68
2022/07/29 03:38:26;;;;;;;9.00;5.32;;;8.00;99.90;;;;;;5034520;28;20147;-68
2022/07/29 03:40:55;;;;;;;8.10;4.65;;;8.00;99.90;;;;;;5034442;28;20026;-68
2022/07/29 03:43:24;;;;;;;11.63;5.95;;;8.00;99.90;;;;;;5034445;28;20029;-68
2022/07/29 03:45:53;;;;;;;12.27;5.63;;;8.00;99.90;;;;;;5034272;28;20029;-68
2022/07/29 03:48:21;;;;;;;10.63;5.38;;;8.10;99.90;;;;;;5034591;28;20029;-68
2022/07/29 03:50:47;;;;;;;5.07;4.38;;;8.10;99.90;;;;;;5034267;28;20100;-68
2022/07/29 03:53:13;;;;;;;6.10;4.35;;;8.10;99.90;;;;;;5034442;28;20032;-68
2022/07/29 03:55:48;;;;;;;12.32;4.75;;;8.20;99.90;;;;;;5033169;28;20374;-68
2022/07/29 03:58:15;;;;;;;7.68;5.18;;;8.20;99.90;;;;;;5034412;28;20068;-68
2022/07/29 04:00:43;;;;;;;6.47;4.95;;;8.30;99.90;;;;;;5034734;28;20068;-68
2022/07/29 04:03:09;;;;;;;8.68;5.47;;;8.30;99.90;;;;;;5035047;28;20025;-68
2022/07/29 04:05:34;;;;;;;6.65;5.13;;;8.30;99.90;;;;;;5035389;28;20105;-68
2022/07/29 04:08:00;;;;;;;7.72;5.47;;;8.40;99.90;;;;;;5034500;28;20056;-68
2022/07/29 04:10:26;;;;;;;7.68;5.22;;;8.50;99.90;;;;;;5032986;28;20021;-68
2022/07/29 04:12:52;;;;;;;7.22;5.30;;;8.50;99.90;;;;;;5033868;28;20030;-68
2022/07/29 04:15:18;;;;;;;7.07;4.53;;;8.60;99.90;;;;;;5034082;28;20013;-68
2022/07/29 04:17:43;;;;;;;6.68;5.63;;;8.70;99.90;;;;;;5032505;28;20539;-68
2022/07/29 04:20:12;;;;;;;7.38;5.70;;;8.70;99.90;;;;;;5033689;28;20091;-68
2022/07/29 04:22:39;;;;;;;7.32;6.00;;;8.80;99.90;;;;;;5033737;28;20026;-68
2022/07/29 04:25:04;;;;;;;11.27;6.75;;;8.90;99.90;;;;;;5033689;28;20504;-68
2022/07/29 04:27:30;;;;;;;7.15;5.63;;;8.90;99.90;;;;;;5033820;28;20037;-68
2022/07/29 04:29:56;;;;;;;7.80;6.05;;;9.00;99.90;;;;;;5033846;28;20083;-68
2022/07/29 04:32:21;;;;;;;13.15;6.55;;;9.10;99.90;;;;;;5033468;28;20022;-68
2022/07/29 04:34:47;;;;;;;8.45;5.88;;;9.10;99.90;;;;;;5033575;28;20049;-68
2022/07/29 04:37:12;;;;;;;11.15;6.22;;;9.20;99.90;;;;;;5033921;28;20021;-68
2022/07/29 04:39:38;;;;;;;13.43;5.43;;;9.20;99.90;;;;;;5033451;28;20060;-68
2022/07/29 04:42:04;;;;;;;6.75;5.47;;;9.30;99.90;;;;;;5034059;28;20029;-68
2022/07/29 04:44:29;;;;;;;11.70;6.63;;;9.30;99.90;;;;;;5033346;28;20053;-68
2022/07/29 04:46:55;;;;;;;8.57;6.47;;;9.40;99.90;;;;;;5033500;28;20026;-68
2022/07/29 04:49:21;;;;;;;8.32;6.55;;;9.40;99.90;;;;;;5033300;28;20033;-68
2022/07/29 04:51:46;;;;;;;11.05;6.22;;;9.50;99.90;;;;;;5033390;28;20025;-68
2022/07/29 04:54:12;;;;;;;7.63;6.13;;;9.50;99.90;;;;;;5033418;28;20018;-68
2022/07/29 04:56:38;;;;;;;11.05;6.97;;;9.60;99.90;;;;;;5033720;28;20052;-68
2022/07/29 04:59:03;;;;;;;8.43;6.32;;;9.70;99.90;;;;;;5033244;28;20017;-68
2022/07/29 05:01:29;;;;;;;11.23;6.50;;;9.80;99.90;;;;;;5033339;28;20026;-68
2022/07/29 05:03:54;;;;;;;9.98;6.13;;;9.90;99.90;;;;;;5033337;28;20143;-68
2022/07/29 05:06:20;;;;;;;11.05;6.25;;;10.00;99.90;;;;;;5034057;28;20025;-68
2022/07/29 05:08:45;;;;;;;12.80;7.45;;;10.10;99.90;;;;;;5037406;28;20444;-68
2022/07/29 05:11:11;;;;;;;9.38;6.90;;;10.20;99.90;;;;;;5037141;28;20028;-68
2022/07/29 05:13:37;;;;;;;11.35;6.85;;;10.40;99.90;;;;;;5037495;28;20112;-68
2022/07/29 05:16:02;;;;;;;13.18;8.30;;;10.60;99.90;;;;;;5037445;28;20026;-68
2022/07/29 05:18:28;;;;;;;13.18;7.78;;;10.60;99.90;;;;;;5036941;28;20025;-69
2022/07/29 05:20:53;;;;;;;12.10;7.07;;;10.80;99.90;;;;;;5036909;28;20088;-69
2022/07/29 05:23:19;;;;;;;12.38;6.45;;;10.90;99.90;;;;;;5037014;28;20037;-69
2022/07/29 05:25:46;;;;;;;13.30;7.05;;;11.10;99.90;;;;;;5036930;28;20026;-68
2022/07/29 05:28:11;;;;;;;10.68;6.18;;;11.20;99.90;;;;;;5037136;28;20027;-68
2022/07/29 05:30:37;;;;;;;11.82;6.75;;;11.40;99.90;;;;;;5036675;28;20100;-69
2022/07/29 05:33:02;;;;;;;10.43;6.57;;;11.50;99.90;;;;;;5036674;28;20083;-69
2022/07/29 05:35:28;;;;;;;16.23;7.22;;;11.60;99.90;;;;;;5036740;28;20022;-69
2022/07/29 05:37:53;;;;;;;14.07;7.13;;;11.80;99.90;;;;;;5036726;28;20053;-69
2022/07/29 05:40:20;;;;;;;9.00;6.28;;;12.00;99.90;;;;;;5036564;28;20021;-69
2022/07/29 05:42:45;;;;;;;10.68;6.68;;;12.10;99.90;;;;;;5036623;28;20056;-69
2022/07/29 05:45:11;;;;;;;9.88;6.85;;;12.20;99.90;;;;;;5036630;28;20065;-69
2022/07/29 05:47:36;;;;;;;13.40;6.65;;;12.50;99.90;;;;;;5036549;28;20484;-68
2022/07/29 05:50:03;;;;;;;8.43;6.45;;;12.50;99.90;;;;;;5036413;28;20105;-68
2022/07/29 05:52:29;;;;;;;10.40;5.63;;;12.70;99.90;;;;;;5036394;28;20026;-69
2022/07/29 05:54:55;;;;;;;11.77;6.90;;;12.90;99.90;;;;;;5036634;28;20033;-69
2022/07/29 05:57:24;;;;;;;11.57;6.03;;;13.10;99.90;;;;;;5036591;28;20033;-69
2022/07/29 05:59:51;;;;;;;7.65;5.85;;;13.30;99.90;;;;;;5036790;28;20025;-69
2022/07/29 06:02:17;;;;;;;12.82;6.63;;;13.40;99.90;;;;;;5036074;28;20036;-69
2022/07/29 06:04:43;;;;;;;9.18;6.65;;;13.60;99.90;;;;;;5036210;28;20021;-69
2022/07/29 06:07:08;;;;;;;9.52;6.35;;;13.70;99.90;;;;;;5036215;28;20041;-69
2022/07/29 06:09:35;;;;;;;8.98;6.10;;;13.90;99.90;;;;;;5035848;28;20022;-69
2022/07/29 06:12:01;;;;;;;7.80;5.25;;;14.00;99.90;;;;;;5036249;28;20386;-69
2022/07/29 06:14:28;;;;;;;17.45;5.38;;;14.20;99.90;;;;;;5036354;28;20485;-69
2022/07/29 06:16:53;;;;;;;10.57;6.07;;;14.20;99.90;;;;;;5035859;28;20532;-69
2022/07/29 06:19:19;;;;;;;10.77;6.13;;;14.30;99.90;;;;;;5034824;28;20096;-69
2022/07/29 06:21:45;;;;;;;8.77;5.25;;;14.50;99.90;;;;;;5035760;28;20115;-69
2022/07/29 06:24:12;;;;;;;9.45;5.30;;;14.70;99.90;;;;;;5035878;28;20021;-68
2022/07/29 06:26:38;;;;;;;8.13;5.32;;;14.80;99.90;;;;;;5036046;28;20052;-68
2022/07/29 06:29:04;;;;;;;7.65;5.25;;;14.90;99.90;;;;;;5037530;28;20034;-69
2022/07/29 06:31:29;;;;;;;19.92;5.15;;;14.90;99.90;;;;;;5037117;28;20201;-69
2022/07/29 06:33:55;;;;;;;5.53;3.60;;;15.10;99.90;;;;;;5036011;28;20026;-69
2022/07/29 06:36:20;;;;;;;8.73;4.38;;;15.20;99.90;;;;;;5035663;28;20021;-69
2022/07/29 06:38:46;;;;;;;12.43;5.55;;;15.30;99.90;;;;;;5035657;28;20049;-69
2022/07/29 06:41:15;;;;;;;7.28;4.40;;;15.40;99.90;;;;;;5035371;28;20381;-69
2022/07/29 06:43:43;;;;;;;6.68;3.95;;;15.60;99.90;;;;;;5035454;28;20037;-68
2022/07/29 06:46:15;;;;;;;8.90;4.07;;;15.80;99.90;;;;;;5035821;28;20100;-69
2022/07/29 06:48:42;;;;;;;13.02;4.28;;;16.00;99.90;;;;;;5035502;28;20034;-68
2022/07/29 06:51:08;;;;;;;5.80;3.90;;;16.20;99.90;;;;;;5035653;28;20036;-68
2022/07/29 06:53:35;;;;;;;5.55;3.80;;;16.50;99.90;;;;;;5035186;28;20394;-68
2022/07/29 06:56:02;;;;;;;6.88;3.67;;;16.70;99.90;;;;;;5035366;28;20029;-68
2022/07/29 06:58:29;;;;;;;4.70;3.17;;;16.80;99.90;;;;;;5035242;28;20492;-68
2022/07/29 07:00:56;;;;;;;8.93;3.78;;;16.90;99.90;;;;;;5034994;28;20116;-68
2022/07/29 07:03:22;;;;;;;4.35;2.92;;;17.10;99.90;;;;;;5035170;28;20030;-68
2022/07/29 07:05:48;;;;;;;7.05;3.22;;;17.30;99.90;;;;;;5034922;28;20021;-68
2022/07/29 07:08:15;;;;;;;4.32;2.38;;;17.50;99.90;;;;;;5034065;28;20100;-68
2022/07/29 07:10:41;;;;;;;6.00;3.28;;;17.80;99.90;;;;;;5034940;28;20593;-68
2022/07/29 07:13:07;;;;;;;4.65;2.70;;;17.80;99.90;;;;;;5035179;28;20393;-68
2022/07/29 07:15:33;;;;;;;4.68;2.60;;;18.00;99.90;;;;;;5034904;28;20026;-68
2022/07/29 07:17:58;;;;;;;5.45;2.50;;;18.20;99.90;;;;;;5034844;28;20030;-68
2022/07/29 07:20:25;;;;;;;5.32;2.33;;;18.30;99.90;;;;;;5035046;28;20495;-68
2022/07/29 07:22:50;;;;;;;3.90;2.13;;;18.40;99.90;;;;;;5034712;28;20033;-68
2022/07/29 07:25:17;;;;;;;4.18;2.28;;;18.60;99.90;;;;;;5034429;28;20070;-68
2022/07/29 07:27:46;;;;;;;5.93;2.53;;;18.70;99.90;;;;;;5034630;28;20385;-69
2022/07/29 07:30:12;;;;;;;6.13;2.60;;;18.80;99.90;;;;;;5034344;28;20151;-68
2022/07/29 07:32:37;;;;;;;3.45;2.00;;;18.90;99.90;;;;;;5034521;28;20484;-68
2022/07/29 07:35:06;;;;;;;5.97;2.53;;;19.10;99.90;;;;;;5034447;28;20576;-68
2022/07/29 07:37:32;;;;;;;3.08;1.73;;;19.20;99.90;;;;;;5034229;28;20104;-68
2022/07/29 07:39:58;;;;;;;2.90;2.20;;;19.40;99.90;;;;;;5034689;28;20488;-68
2022/07/29 07:42:24;;;;;;;8.13;2.03;;;19.60;99.90;;;;;;5034474;28;20108;-69
2022/07/29 07:44:50;;;;;;;8.95;2.17;;;19.60;99.90;;;;;;5034105;28;20026;-69
2022/07/29 07:47:23;;;;;;;5.68;2.13;;;19.80;99.90;;;;;;5034615;28;20036;-68
2022/07/29 07:49:49;;;;;;;9.25;2.17;;;19.90;99.90;;;;;;5034245;28;20021;-68
2022/07/29 07:52:17;;;;;;;9.57;2.20;;;20.10;99.90;;;;;;5034810;28;20038;-68
2022/07/29 07:54:43;;;;;;;9.98;2.40;;;20.20;99.90;;;;;;5034235;28;20021;-68
2022/07/29 07:57:09;;;;;;;7.35;2.05;;;20.30;99.90;;;;;;5034413;28;20533;-68
2022/07/29 07:59:35;;;;;;;4.20;2.10;;;20.40;99.90;;;;;;5034023;28;20092;-68
2022/07/29 08:02:00;;;;;;;2.95;2.13;;;20.60;99.90;;;;;;5034052;28;20087;-68
2022/07/29 08:04:26;;;;;;;6.13;2.10;;;20.70;99.90;;;;;;5033951;28;20021;-68
2022/07/29 08:06:54;;;;;;;7.35;1.98;;;21.00;99.90;;;;;;5034073;28;20033;-68
2022/07/29 08:09:20;;;;;;;5.03;2.05;;;21.20;99.90;;;;;;5033968;28;20389;-68
2022/07/29 08:11:46;;;;;;;7.50;2.08;;;21.40;99.90;;;;;;5033817;28;20025;-68
2022/07/29 08:14:13;;;;;;;3.25;1.80;;;21.70;99.90;;;;;;5034406;28;20469;-68
2022/07/29 08:16:39;;;;;;;5.35;1.98;;;21.80;99.90;;;;;;5034026;28;20045;-68
2022/07/29 08:19:05;;;;;;;4.20;1.70;;;21.90;99.90;;;;;;5033836;28;20119;-68
2022/07/29 08:21:31;;;;;;;7.30;1.88;;;21.90;99.90;;;;;;5033676;28;20116;-68
2022/07/29 08:24:42;;;;;;;4.85;1.92;;;22.00;99.90;;;;;;5033900;28;20014;-68
2022/07/29 08:26:45;;;;;;;6.65;1.92;;;22.10;99.90;;;;;;5033572;28;20083;-68
2022/07/29 08:29:11;;;;;;;12.30;2.33;;;22.30;99.90;;;;;;5033593;28;20030;-68
2022/07/29 08:31:37;;;;;;;11.57;2.20;;;22.40;99.90;;;;;;5033514;28;20029;-68
2022/07/29 08:34:03;;;;;;;5.47;1.83;;;22.50;99.90;;;;;;5033706;28;20040;-68
2022/07/29 08:36:29;;;;;;;8.88;2.20;;;22.80;99.90;;;;;;5033856;28;20143;-68
2022/07/29 08:38:55;;;;;;;6.93;2.03;;;23.10;99.90;;;;;;5032352;28;20025;-68
2022/07/29 08:41:21;;;;;;;9.00;1.83;;;23.30;99.90;;;;;;5032780;28;20017;-68
2022/07/29 08:43:48;;;;;;;7.05;1.83;;;23.40;99.90;;;;;;5033813;28;20527;-68
2022/07/29 08:46:15;;;;;;;5.63;1.40;;;23.50;99.90;;;;;;5033663;28;20056;-68
2022/07/29 08:48:41;;;;;;;9.68;2.42;;;23.50;99.90;;;;;;5033659;28;20056;-68
2022/07/29 08:51:08;;;;;;;5.68;1.45;;;23.40;99.90;;;;;;5033389;28;20026;-68
2022/07/29 08:53:34;;;;;;;7.07;1.45;;;23.30;99.90;;;;;;5034144;28;20026;-68
2022/07/29 08:56:01;;;;;;;8.65;2.15;;;23.40;99.90;;;;;;5034206;28;20056;-68
2022/07/29 08:58:32;;;;;;;7.60;1.45;;;23.50;99.90;;;;;;5034388;28;20026;-68
2022/07/29 09:01:01;;;;;;;4.32;1.77;;;23.70;99.90;;;;;;5033250;28;20160;-68
2022/07/29 09:03:30;;;;;;;6.60;1.90;;;23.90;99.90;;;;;;5033396;28;20155;-68
2022/07/29 09:05:57;;;;;;;6.85;2.00;;;24.10;99.90;;;;;;5033646;28;20104;-68
2022/07/29 09:08:23;;;;;;;7.05;1.85;;;24.30;99.90;;;;;;5033563;28;20022;-68
2022/07/29 09:10:49;;;;;;;4.57;2.08;;;24.40;99.90;;;;;;5033236;28;20021;-69
2022/07/29 09:13:14;;;;;;;6.05;1.67;;;24.60;99.90;;;;;;5033217;28;20473;-66
2022/07/29 09:15:40;;;;;;;7.50;2.10;;;24.60;99.90;;;;;;5033594;28;20026;-68
2022/07/29 09:18:05;;;;;;;9.15;2.05;;;24.80;99.90;;;;;;5033476;28;20100;-68
2022/07/29 09:23:15;;;;;;;2.88;1.35;;;24.80;99.90;;;;;;5033354;28;20032;-68
2022/07/29 09:25:41;;;;;;;6.80;1.40;;;24.90;99.90;;;;;;5033197;28;20021;-68
2022/07/29 09:28:16;;;;;;;3.38;1.55;;;24.90;99.90;;;;;;5033150;28;20029;-66
2022/07/29 09:30:58;;;;;;;3.38;1.63;;;25.10;99.90;;;;;;5033246;28;20025;-68
2022/07/29 09:33:34;;;;;;;3.67;1.45;;;25.20;99.90;;;;;;5033093;28;20021;-68
2022/07/29 09:36:05;;;;;;;8.70;1.73;;;25.00;99.90;;;;;;5033445;28;20492;-67
2022/07/29 09:38:32;;;;;;;8.07;1.90;;;24.90;99.90;;;;;;5032996;28;20087;-68
2022/07/29 09:40:59;;;;;;;3.22;1.67;;;24.60;99.90;;;;;;5032995;28;20018;-67
2022/07/29 09:43:25;;;;;;;7.18;1.70;;;24.50;99.90;;;;;;5033091;28;20041;-68
2022/07/29 09:45:50;;;;;;;12.30;1.77;;;24.60;99.90;;;;;;5032950;28;20026;-69
2022/07/29 09:48:22;;;;;;;4.68;2.17;;;24.80;99.90;;;;;;5033277;28;20432;-68
2022/07/29 09:50:52;;;;;;;7.47;1.80;;;24.90;99.90;;;;;;5033091;28;20026;-69
2022/07/29 09:53:32;;;;;;;6.68;1.60;;;25.00;99.90;;;;;;5035746;28;20026;-69
2022/07/29 09:55:58;;;;;;;3.50;1.30;;;25.30;99.90;;;;;;5037082;28;20048;-69
2022/07/29 09:58:24;;;;;;;6.53;1.88;;;25.40;99.90;;;;;;5036453;28;20447;-67
2022/07/29 10:00:51;;;;;;;8.43;2.35;;;25.60;99.90;;;;;;5036307;28;20100;-69
2022/07/29 10:03:17;;;;;;;9.32;1.95;;;25.80;99.90;;;;;;5036381;28;20045;-67
2022/07/29 10:05:44;;;;;;;10.65;1.65;;;25.90;99.90;;;;;;5036468;28;20037;-67
2022/07/29 10:08:12;;;;;;;7.95;1.70;;;26.10;99.90;;;;;;5036226;28;20060;-67
2022/07/29 10:10:42;;;;;;;8.18;1.90;;;26.00;99.90;;;;;;5036221;28;20080;-67
2022/07/29 10:13:13;;;;;;;7.15;1.85;;;26.00;99.90;;;;;;5036474;28;20083;-67
2022/07/29 10:15:43;;;;;;;6.68;1.75;;;26.00;99.90;;;;;;5036299;28;20014;-67
2022/07/29 10:18:10;;;;;;;5.60;1.85;;;26.00;99.90;;;;;;5036101;28;20033;-67
2022/07/29 10:20:36;;;;;;;7.20;1.60;;;26.20;99.90;;;;;;5035897;28;20061;-67
2022/07/29 10:23:02;;;;;;;11.35;2.40;;;26.50;99.90;;;;;;5035954;28;20083;-67
2022/07/29 10:25:28;;;;;;;3.75;1.58;;;26.90;99.90;;;;;;5035957;28;20452;-67
2022/07/29 10:27:54;;;;;;;6.13;1.95;;;27.10;99.90;;;;;;5036205;28;20033;-67
2022/07/29 10:30:22;;;;;;;4.68;1.50;;;27.00;99.90;;;;;;5036026;28;20041;-68
2022/07/29 10:33:16;;;;;;;8.38;1.60;;;27.20;99.90;;;;;;5036236;28;20358;-68
2022/07/29 10:35:54;;;;;;;5.07;1.73;;;27.40;99.90;;;;;;5036081;28;20029;-68
2022/07/29 10:38:32;;;;;;;7.75;1.92;;;27.60;99.90;;;;;;5035804;28;20029;-68
2022/07/29 10:41:36;;;;;;;5.30;1.48;;;27.80;99.90;;;;;;5035937;28;20488;-68
2022/07/29 10:44:14;;;;;;;5.88;1.73;;;27.80;99.90;;;;;;5035616;28;20022;-68
2022/07/29 10:46:40;;;;;;;9.57;1.75;;;27.70;99.90;;;;;;5035715;28;20104;-68
2022/07/29 10:49:14;;;;;;;8.38;2.13;;;28.00;99.90;;;;;;5035519;28;20071;-67
2022/07/29 10:52:00;;;;;;;4.80;1.70;;;28.20;99.90;;;;;;5035405;28;20029;-68
2022/07/29 10:54:35;;;;;;;16.10;2.08;;;28.40;99.90;;;;;;5035934;28;20517;-68
2022/07/29 10:57:25;;;;;;;11.23;2.05;;;28.70;99.90;;;;;;5035392;28;20030;-68
2022/07/29 11:00:11;;;;;;;5.18;1.83;;;28.80;99.90;;;;;;5035444;28;20496;-68
2022/07/29 11:02:39;;;;;;;4.28;1.40;;;28.80;99.90;;;;;;5028093;28;20440;-67
2022/07/29 11:05:16;;;;;;;6.10;1.50;;;28.90;99.90;;;;;;5034639;28;20057;-67
2022/07/29 11:08:12;;;;;;;8.02;1.42;;;29.00;99.90;;;;;;5035335;28;20021;-67
2022/07/29 11:10:39;;;;;;;6.05;1.40;;;29.20;99.90;;;;;;5033873;28;20033;-67
2022/07/29 11:13:05;;;;;;;15.07;2.53;;;29.30;99.90;;;;;;5034917;28;20033;-67
2022/07/29 11:15:54;;;;;;;4.20;1.48;;;29.20;99.90;;;;;;5035613;28;20025;-67
2022/07/29 11:18:20;;;;;;;4.72;1.88;;;29.40;99.90;;;;;;5036811;28;20025;-67
2022/07/29 11:20:47;;;;;;;7.55;1.92;;;29.70;99.90;;;;;;5035118;28;20037;-67
2022/07/29 11:23:43;;;;;;;7.97;2.33;;;29.70;99.90;;;;;;5034885;28;20017;-67
2022/07/29 11:26:20;;;;;;;5.32;1.90;;;29.50;99.90;;;;;;5035203;28;20105;-68
2022/07/29 11:29:16;;;;;;;6.28;1.77;;;29.10;99.90;;;;;;5035111;28;20478;-68
2022/07/29 11:31:53;;;;;;;3.83;1.73;;;28.70;99.20;;;;;;5035218;28;20080;-68
2022/07/29 11:34:29;;;;;;;6.03;1.90;;;27.80;99.90;;;;;;5034782;28;20013;-67
2022/07/29 11:37:06;;;;;;;7.05;1.80;;;27.40;99.90;;;;;;5034884;28;20488;-67
2022/07/29 11:39:34;;;;;;;5.40;1.80;;;27.10;99.90;;;;;;5035041;28;20030;-67
2022/07/29 11:42:24;;;;;;;4.95;1.90;;;27.00;99.90;;;;;;5034933;28;20033;-68
2022/07/29 11:45:09;;;;;;;6.63;2.13;;;26.80;99.90;;;;;;5034416;28;20028;-68
2022/07/29 11:47:39;;;;;;;5.90;1.95;;;27.20;99.90;;;;;;5034748;28;20379;-68
2022/07/29 11:50:11;;;;;;;5.60;2.00;;;27.30;99.90;;;;;;5034564;28;20084;-68
2022/07/29 11:52:44;;;;;;;11.32;1.52;;;27.20;99.90;;;;;;5034607;28;20382;-68
2022/07/29 11:55:12;;;;;;;5.43;1.77;;;27.00;99.90;;;;;;5034626;28;20022;-67
2022/07/29 11:57:49;;;;;;;10.80;2.35;;;26.90;99.90;;;;;;5034202;28;20021;-67
2022/07/29 12:00:22;;;;;;;3.88;1.40;;;27.00;99.90;;;;;;5034200;28;20018;-67
2022/07/29 12:02:47;;;;;;;;;;;27.40;99.90;;;;;;5034827;28;20029;-67
2022/07/29 12:05:13;;;;;;;4.95;1.42;;;27.50;99.90;;;;;;5034384;28;19905;-67
2022/07/29 12:07:39;;;;;;;2.97;1.23;;;27.70;99.90;;;;;;5034013;28;20026;-67
2022/07/29 12:10:06;;;;;;;7.22;1.20;;;28.10;99.90;;;;;;5033880;28;20551;-67
2022/07/29 12:12:32;;;;;;;5.00;1.75;;;28.80;99.90;;;;;;5034069;28;20116;-67
2022/07/29 12:14:58;;;;;;;3.67;1.25;;;29.40;99.90;;;;;;5033837;28;20064;-67
2022/07/29 12:17:30;;;;;;;10.20;2.38;;;30.00;99.90;;;;;;5033079;28;20052;-67
2022/07/29 12:19:57;;;;;;;5.55;1.60;;;29.70;99.40;;;;;;5033857;28;20477;-67
2022/07/29 12:22:27;;;;;;;7.47;1.55;;;29.40;99.90;;;;;;5029089;28;20034;-67
2022/07/29 12:24:55;;;;;;;3.08;1.38;;;29.80;96.80;;;;;;5031684;28;20025;-67
2022/07/29 12:27:21;;;;;;;10.10;1.45;;;30.20;96.80;;;;;;5021555;28;20026;-67
2022/07/29 12:30:08;;;;;;;14.77;1.80;;;30.40;95.40;;;;;;5013868;28;20470;-67
2022/07/29 12:32:42;;;;;;;4.97;1.63;;;30.80;97.90;;;;;;5014250;28;20022;-67
2022/07/29 12:35:17;;;;;;;9.15;1.75;;;30.80;97.00;;;;;;5014260;28;20036;-68
2022/07/29 12:37:44;;;;;;;8.35;1.70;;;30.90;97.60;;;;;;5013982;28;20017;-68
2022/07/29 12:40:13;;;;;;;5.05;1.65;;;30.80;98.60;;;;;;5014034;28;20037;-67
2022/07/29 12:42:39;;;;;;;6.18;1.20;;;30.90;96.90;;;;;;5014122;28;20037;-67
2022/07/29 12:45:06;;;;;;;4.35;1.17;;;31.10;96.70;;;;;;5014330;28;20493;-67
2022/07/29 12:47:32;;;;;;;5.13;1.58;;;30.90;96.30;;;;;;5014128;28;20026;-67
2022/07/29 12:50:14;;;;;;;4.95;1.52;;;30.50;94.70;;;;;;5013793;28;20022;-67
2022/07/29 12:52:39;;;;;;;3.80;1.50;;;30.00;96.40;;;;;;5013503;28;20022;-67
2022/07/29 12:55:05;;;;;;;5.20;1.85;;;29.30;96.90;;;;;;5013777;28;20029;-68
2022/07/29 12:57:31;;;;;;;12.10;2.50;;;28.60;96.90;;;;;;5013914;28;20494;-68
2022/07/29 13:00:08;;;;;;;8.05;1.95;;;28.00;97.40;;;;;;5013465;28;20474;-68
2022/07/29 13:02:34;;;;;;;6.25;1.67;;;27.50;97.80;;;;;;5014061;28;20030;-67